DAL1622 KATL-KJFK
Flight info
| Callsign | DAL1622 |
|---|---|
| Flight time | N/A |
| Altitude | 35000 |
| Route | PHIIL3 HRTWL Q64 SAWED Q108 SIE CAMRN5 |
| Aircraft | B753/M-SDE2E3FGHIJ3J4J7RWXY/LB1 |
Departure
| Time | N/A |
|---|---|
| Airport | Hartsfield Jackson Atlanta International Airport (KATL) |
Arrival
| Time | 2026-05-04 11:22 |
|---|---|
| Airport | John F. Kennedy International Airport (KJFK) |
| Time | Latitude | Longitude | Altitude | Speed | Heading |
|---|---|---|---|---|---|
| 2026-05-04 10:42 | 37.83690 | -75.62057 | 35091 ft | 516 kts | 26° |
| 2026-05-04 10:43 | 37.86664 | -75.59523 | 35091 ft | 518 kts | 29° |
| 2026-05-04 10:45 | 38.10595 | -75.39371 | 35086 ft | 518 kts | 26° |
| 2026-05-04 10:45 | 38.16472 | -75.34641 | 35076 ft | 514 kts | 27° |
| 2026-05-04 10:46 | 38.22548 | -75.29925 | 35075 ft | 511 kts | 20° |
| 2026-05-04 10:46 | 38.29183 | -75.27161 | 35081 ft | 494 kts | 3° |
| 2026-05-04 10:47 | 38.35930 | -75.25609 | 35068 ft | 491 kts | 2° |
| 2026-05-04 10:47 | 38.42643 | -75.24140 | 35068 ft | 491 kts | 2° |
| 2026-05-04 10:49 | 38.69846 | -75.17575 | 35074 ft | 505 kts | 18° |
| 2026-05-04 10:50 | 38.75904 | -75.12785 | 35077 ft | 518 kts | 32° |
| 2026-05-04 10:52 | 38.98702 | -74.90413 | 35059 ft | 517 kts | 32° |
| 2026-05-04 10:52 | 39.04417 | -74.84767 | 35059 ft | 516 kts | 32° |
| 2026-05-04 10:54 | 39.22986 | -74.65344 | 33152 ft | 480 kts | 34° |
| 2026-05-04 10:54 | 39.25551 | -74.62573 | 32544 ft | 488 kts | 34° |
| 2026-05-04 10:56 | 39.43677 | -74.42707 | 28489 ft | 476 kts | 34° |
| 2026-05-04 10:56 | 39.46240 | -74.39977 | 26643 ft | 502 kts | 35° |
| 2026-05-04 10:56 | 39.48981 | -74.37028 | 24567 ft | 528 kts | 36° |
| 2026-05-04 10:57 | 39.51706 | -74.34067 | 22649 ft | 520 kts | 37° |
| 2026-05-04 10:57 | 39.54414 | -74.31109 | 20742 ft | 507 kts | 37° |
| 2026-05-04 10:57 | 39.57049 | -74.28225 | 19132 ft | 487 kts | 37° |
| 2026-05-04 10:57 | 39.59431 | -74.25599 | 19672 ft | 423 kts | 37° |
| 2026-05-04 10:58 | 39.61535 | -74.23165 | 19727 ft | 396 kts | 37° |
| 2026-05-04 10:58 | 39.63610 | -74.20843 | 19736 ft | 393 kts | 36° |
| 2026-05-04 10:58 | 39.65713 | -74.18526 | 19794 ft | 404 kts | 36° |
| 2026-05-04 10:58 | 39.67855 | -74.16164 | 19734 ft | 405 kts | 36° |
| 2026-05-04 10:59 | 39.69993 | -74.13849 | 19735 ft | 399 kts | 35° |
| 2026-05-04 10:59 | 39.72128 | -74.11561 | 19392 ft | 394 kts | 35° |
| 2026-05-04 10:59 | 39.74241 | -74.09267 | 18784 ft | 395 kts | 36° |
| 2026-05-04 10:59 | 39.76318 | -74.06989 | 18386 ft | 391 kts | 36° |
| 2026-05-04 11:00 | 39.78393 | -74.04708 | 17851 ft | 390 kts | 36° |
| 2026-05-04 11:01 | 39.93743 | -73.91625 | 14414 ft | 370 kts | 25° |
| 2026-05-04 11:02 | 39.95986 | -73.90033 | 13923 ft | 368 kts | 25° |
| 2026-05-04 11:02 | 39.98218 | -73.88449 | 13463 ft | 366 kts | 25° |
| 2026-05-04 11:05 | 40.27936 | -73.67372 | 10843 ft | 307 kts | 25° |
| 2026-05-04 11:06 | 40.29802 | -73.66047 | 10494 ft | 306 kts | 25° |
| 2026-05-04 11:06 | 40.31656 | -73.64730 | 10174 ft | 304 kts | 25° |
| 2026-05-04 11:06 | 40.33520 | -73.63406 | 9826 ft | 303 kts | 25° |
| 2026-05-04 11:06 | 40.35373 | -73.62088 | 9497 ft | 302 kts | 25° |
| 2026-05-04 11:08 | 40.46779 | -73.56427 | 7553 ft | 290 kts | 15° |
| 2026-05-04 11:10 | 40.61161 | -73.49599 | 5976 ft | 278 kts | 15° |
| 2026-05-04 11:12 | 40.72686 | -73.43390 | 5303 ft | 234 kts | 20° |
| 2026-05-04 11:12 | 40.74063 | -73.42525 | 5043 ft | 232 kts | 18° |
| 2026-05-04 11:12 | 40.75580 | -73.42100 | 4670 ft | 219 kts | 345° |
| 2026-05-04 11:12 | 40.76907 | -73.42802 | 4309 ft | 204 kts | 310° |
| 2026-05-04 11:13 | 40.77767 | -73.44139 | 4157 ft | 189 kts | 301° |
| 2026-05-04 11:13 | 40.78426 | -73.45299 | 4124 ft | 177 kts | 300° |
| 2026-05-04 11:13 | 40.79144 | -73.46635 | 3887 ft | 173 kts | 297° |
| 2026-05-04 11:13 | 40.79813 | -73.47950 | 3666 ft | 166 kts | 297° |
| 2026-05-04 11:14 | 40.80446 | -73.49240 | 3239 ft | 170 kts | 296° |
| 2026-05-04 11:14 | 40.81023 | -73.50437 | 2970 ft | 165 kts | 296° |
| 2026-05-04 11:14 | 40.81630 | -73.51711 | 2964 ft | 160 kts | 295° |
| 2026-05-04 11:16 | 40.80148 | -73.61437 | 2973 ft | 162 kts | 251° |
| 2026-05-04 11:16 | 40.79769 | -73.62828 | 2965 ft | 161 kts | 243° |
| 2026-05-04 11:17 | 40.78710 | -73.64072 | 2996 ft | 167 kts | 216° |
| 2026-05-04 11:17 | 40.77725 | -73.64877 | 2966 ft | 165 kts | 218° |
| 2026-05-04 11:19 | 40.72336 | -73.69375 | 1838 ft | 123 kts | 217° |
| 2026-05-04 11:19 | 40.71600 | -73.69955 | 1674 ft | 123 kts | 217° |
| 2026-05-04 11:19 | 40.70913 | -73.70499 | 1523 ft | 125 kts | 216° |
| 2026-05-04 11:19 | 40.70153 | -73.71094 | 1347 ft | 124 kts | 216° |
| 2026-05-04 11:20 | 40.69418 | -73.71671 | 1179 ft | 125 kts | 215° |
| 2026-05-04 11:20 | 40.68668 | -73.72257 | 1009 ft | 127 kts | 215° |
| 2026-05-04 11:20 | 40.67942 | -73.72803 | 845 ft | 128 kts | 212° |
| 2026-05-04 11:20 | 40.67170 | -73.73350 | 712 ft | 127 kts | 214° |
| 2026-05-04 11:22 | 40.62952 | -73.76839 | 14 ft | 21 kts | 245° |
| 2026-05-04 11:22 | 40.62929 | -73.76941 | 14 ft | 6 kts | 274° |
| 2026-05-04 11:23 | 40.62942 | -73.76997 | 14 ft | 6 kts | 298° |
| 2026-05-04 11:23 | 40.62965 | -73.77052 | 14 ft | 8 kts | 300° |
| 2026-05-04 11:24 | 40.63343 | -73.77824 | 14 ft | 3 kts | 1° |
| 2026-05-04 11:25 | 40.63388 | -73.77799 | 14 ft | 10 kts | 30° |
| 2026-05-04 11:25 | 40.63470 | -73.77736 | 15 ft | 14 kts | 25° |
| 2026-05-04 11:25 | 40.63532 | -73.77777 | 15 ft | 10 kts | 304° |
| 2026-05-04 11:26 | 40.63624 | -73.77891 | 16 ft | 6 kts | 356° |
| 2026-05-04 11:27 | 40.63662 | -73.78013 | 17 ft | 0 kts | 263° |